Capitol Logistics 555




RKSI
Incheon International Airport
Seoul, KR
ZSPD
Shanghai Pudong International Airport
Shanghai, CN

Activity Log

Date Flight Route Aircraft Duration
04/26/2022 CPX555 BOPT1H BOPTA Z51 BEDES Y711 PONIK A593 DUMET DUM81A B744 1h 46m

Route Details

Aircraft Information
Group: Trans-Pacific Ops
Types: B744,B763,MD11
Route Data
Demand: V
Distance: 445nm
Duration: 1h 50m
Recm'd Route: BOPT1H BOPTA Z51 BEDES Y711 PONIK A593 DUMET DUM81A
Origin Wx: RKSI 270600Z 26016KT CAVOK 20/11 Q1002 NOSIG
Dest. Wx: ZSPD 270530Z 08005MPS 050V110 CAVOK 28/19 Q1006 NOSIG
Notes:

Financial History
Total Freight: 171,180lbs
Average Load: 171,180lbs/flt
Fuel Used: 48,051lbs
Avg. Fuel Used: 48,051lbs/flt
Fuel Expense: $17,779
Avg. Fuel Expense: $17,779
Avg. Fuel Cost: $0.37/lbs
Total Gross Income: $457,051
Pilot Pay: $239
Total Expenses: $59,404
Total Revenue: $379,519
Average Revenue: $457,050.59